Time;durP1;ratioP1;P1;durP2;ratioP2;P2;SDS_P1;SDS_P2;PMS_P1;PMS_P2;Temp;Humidity;BMP_temperature;BMP_pressure;BME280_temperature;BME280_humidity;BME280_pressure;Samples;Min_cycle;Max_cycle;Signal;HPM_P1;HPM_P2
2022/09/13 00:00:40;;;;;;;6.55;3.95;;;17.10;99.90;;;;;;5016159;28;20396;-62
2022/09/13 00:03:07;;;;;;;6.03;3.55;;;17.10;99.90;;;;;;5015850;28;20042;-62
2022/09/13 00:05:33;;;;;;;7.90;3.92;;;17.10;99.90;;;;;;5030491;28;20083;-62
2022/09/13 00:07:59;;;;;;;4.38;3.22;;;17.10;99.90;;;;;;5033666;28;20038;-62
2022/09/13 00:10:25;;;;;;;5.63;3.47;;;17.00;99.90;;;;;;5033578;28;20087;-62
2022/09/13 00:12:52;;;;;;;7.07;3.65;;;17.10;99.90;;;;;;5031936;28;20029;-62
2022/09/13 00:15:18;;;;;;;6.40;3.85;;;17.10;99.90;;;;;;5033615;28;20088;-62
2022/09/13 00:17:44;;;;;;;5.47;3.75;;;17.00;99.90;;;;;;5031916;28;20083;-62
2022/09/13 00:20:10;;;;;;;9.40;4.20;;;17.00;99.90;;;;;;5033088;28;20045;-62
2022/09/13 00:22:36;;;;;;;5.50;3.80;;;17.00;99.90;;;;;;5033400;28;20048;-62
2022/09/13 00:25:04;;;;;;;7.80;4.32;;;17.00;99.90;;;;;;5033344;28;20116;-62
2022/09/13 00:27:31;;;;;;;9.32;4.50;;;17.10;99.90;;;;;;5031694;28;20057;-62
2022/09/13 00:29:57;;;;;;;5.70;4.07;;;17.00;99.90;;;;;;5033040;28;20060;-62
2022/09/13 00:32:23;;;;;;;7.68;4.25;;;17.10;99.90;;;;;;5032713;28;20049;-62
2022/09/13 00:34:48;;;;;;;6.78;4.63;;;17.10;99.90;;;;;;5031839;28;20041;-62
2022/09/13 00:37:14;;;;;;;11.23;4.88;;;17.10;99.90;;;;;;5033155;28;20392;-62
2022/09/13 00:39:40;;;;;;;7.28;4.18;;;17.10;99.90;;;;;;5032918;28;20107;-62
2022/09/13 00:42:12;;;;;;;7.43;4.72;;;17.10;99.90;;;;;;5031554;28;20041;-62
2022/09/13 00:45:11;;;;;;;6.82;4.55;;;17.20;99.90;;;;;;5032302;28;20116;-62
2022/09/13 00:47:59;;;;;;;8.00;4.20;;;17.10;99.90;;;;;;5031157;28;20048;-62
2022/09/13 00:50:39;;;;;;;6.05;4.10;;;17.10;99.90;;;;;;5031426;28;20053;-62
2022/09/13 00:53:08;;;;;;;6.38;4.03;;;17.10;99.90;;;;;;5033057;28;20045;-63
2022/09/13 00:55:45;;;;;;;7.13;3.95;;;17.10;99.90;;;;;;5032618;28;20041;-62
2022/09/13 00:58:18;;;;;;;6.15;3.97;;;17.10;99.90;;;;;;5032944;28;20044;-62
2022/09/13 01:00:44;;;;;;;6.40;4.07;;;17.00;99.90;;;;;;5032904;28;20117;-62
2022/09/13 01:03:12;;;;;;;6.13;4.13;;;17.00;99.90;;;;;;5032933;28;20073;-62
2022/09/13 01:05:44;;;;;;;7.22;3.90;;;17.00;99.90;;;;;;5033183;28;20073;-62
2022/09/13 01:08:14;;;;;;;5.22;3.58;;;17.00;99.90;;;;;;5032829;28;20045;-62
2022/09/13 01:10:42;;;;;;;5.55;3.85;;;17.00;99.90;;;;;;5032786;28;20041;-62
2022/09/13 01:13:18;;;;;;;7.20;3.33;;;17.00;99.90;;;;;;5028733;28;20042;-62
2022/09/13 01:15:44;;;;;;;8.45;3.92;;;16.90;99.90;;;;;;5032560;28;20038;-63
2022/09/13 01:18:10;;;;;;;6.22;3.88;;;16.90;99.90;;;;;;5032574;28;20120;-62
2022/09/13 01:21:00;;;;;;;9.40;3.72;;;16.90;99.90;;;;;;5032793;28;20041;-62
2022/09/13 01:23:49;;;;;;;9.40;4.18;;;16.90;99.90;;;;;;5032789;28;20042;-62
2022/09/13 01:26:49;;;;;;;5.20;3.83;;;16.90;99.90;;;;;;4995812;28;20060;-62
2022/09/13 01:29:24;;;;;;;6.43;3.67;;;16.90;99.90;;;;;;5031185;28;20041;-62
2022/09/13 01:31:56;;;;;;;5.45;3.85;;;16.90;99.90;;;;;;5031097;28;20133;-62
2022/09/13 01:34:48;;;;;;;6.32;3.90;;;16.90;99.90;;;;;;5030896;28;20045;-62
2022/09/13 01:37:20;;;;;;;8.23;4.47;;;16.90;99.90;;;;;;5011268;28;20073;-62
2022/09/13 01:40:21;;;;;;;6.20;3.53;;;16.90;99.90;;;;;;5032578;28;20108;-62
2022/09/13 01:43:10;;;;;;;6.45;3.90;;;16.90;99.90;;;;;;5028244;28;20048;-63
2022/09/13 01:46:03;;;;;;;7.07;3.95;;;16.90;99.90;;;;;;5032514;28;20042;-62
2022/09/13 01:48:32;;;;;;;10.43;3.92;;;16.90;99.90;;;;;;5032103;28;20042;-62
2022/09/13 01:51:03;;;;;;;7.70;3.75;;;16.90;99.90;;;;;;5032095;28;20049;-63
2022/09/13 01:53:47;;;;;;;6.70;3.72;;;16.90;99.90;;;;;;5032465;28;20077;-62
2022/09/13 01:56:28;;;;;;;9.27;3.45;;;16.90;99.90;;;;;;5033952;28;20041;-62
2022/09/13 01:58:54;;;;;;;;;;;16.90;99.90;;;;;;5036543;28;20045;-62
2022/09/13 02:01:44;;;;;;;5.32;3.22;;;16.90;99.90;;;;;;5035760;28;19921;-62
2022/09/13 02:04:18;;;;;;;6.77;4.50;;;16.90;99.90;;;;;;5036142;28;20192;-62
2022/09/13 02:07:03;;;;;;;7.47;3.70;;;17.00;99.90;;;;;;5035911;28;20048;-62
2022/09/13 02:09:35;;;;;;;6.43;4.35;;;16.90;99.90;;;;;;5035813;28;20124;-62
2022/09/13 02:12:12;;;;;;;8.02;4.45;;;16.90;99.90;;;;;;5035778;28;20045;-62
2022/09/13 02:14:41;;;;;;;8.13;4.32;;;16.90;99.90;;;;;;5035528;28;20042;-63
2022/09/13 02:17:15;;;;;;;9.52;4.90;;;16.90;99.90;;;;;;5031414;28;20045;-62
2022/09/13 02:19:50;;;;;;;8.88;5.28;;;16.90;99.90;;;;;;5035423;28;20049;-62
2022/09/13 02:22:22;;;;;;;10.88;5.82;;;16.90;99.90;;;;;;5035700;28;20081;-62
2022/09/13 02:24:53;;;;;;;10.35;4.93;;;16.90;99.90;;;;;;5034089;28;20049;-62
2022/09/13 02:27:24;;;;;;;8.48;5.45;;;16.90;99.90;;;;;;5035166;28;20056;-62
2022/09/13 02:29:54;;;;;;;10.20;6.05;;;16.90;99.90;;;;;;5035245;28;20057;-62
2022/09/13 02:32:29;;;;;;;8.43;5.13;;;16.90;99.90;;;;;;5035042;28;20053;-62
2022/09/13 02:35:39;;;;;;;12.40;5.82;;;16.90;99.90;;;;;;5035550;28;20048;-62
2022/09/13 02:38:10;;;;;;;10.00;6.03;;;16.90;99.90;;;;;;4954705;29;20435;-62
2022/09/13 02:40:45;;;;;;;15.43;6.85;;;16.90;99.90;;;;;;4954927;29;20075;-62
2022/09/13 02:43:19;;;;;;;12.55;5.85;;;16.90;99.90;;;;;;4999990;28;20042;-62
2022/09/13 02:45:58;;;;;;;12.95;7.38;;;16.90;99.90;;;;;;5034881;28;20052;-62
2022/09/13 02:49:03;;;;;;;12.70;6.60;;;16.90;99.90;;;;;;5035179;28;20389;-62
2022/09/13 02:52:09;;;;;;;11.60;6.50;;;16.90;99.90;;;;;;5022592;28;20046;-62
2022/09/13 02:54:51;;;;;;;16.23;6.32;;;16.90;99.90;;;;;;5034393;28;20083;-62
2022/09/13 02:57:26;;;;;;;11.88;6.47;;;16.90;99.90;;;;;;5034708;28;20048;-62
2022/09/13 02:59:51;;;;;;;12.35;7.28;;;16.90;99.90;;;;;;5034929;28;20041;-62
2022/09/13 03:02:20;;;;;;;12.15;7.30;;;16.90;99.90;;;;;;5034940;28;20033;-62
2022/09/13 03:04:46;;;;;;;12.82;7.10;;;16.90;99.90;;;;;;5034844;28;20048;-62
2022/09/13 03:07:13;;;;;;;15.63;7.55;;;16.90;99.90;;;;;;5033877;28;20120;-62
2022/09/13 03:09:50;;;;;;;11.65;6.70;;;16.90;99.90;;;;;;5034471;28;20052;-62
2022/09/13 03:12:46;;;;;;;13.63;7.68;;;16.90;99.90;;;;;;5034685;28;20041;-62
2022/09/13 03:15:28;;;;;;;12.10;6.70;;;16.90;99.90;;;;;;5033445;28;20044;-62
2022/09/13 03:18:25;;;;;;;12.57;6.85;;;16.90;99.90;;;;;;5034322;28;20044;-62
2022/09/13 03:21:18;;;;;;;14.10;7.65;;;16.90;99.90;;;;;;5034529;28;20033;-62
2022/09/13 03:24:12;;;;;;;11.55;6.88;;;16.90;99.90;;;;;;5034493;28;20064;-62
2022/09/13 03:27:03;;;;;;;11.65;7.07;;;16.90;99.90;;;;;;5003591;28;20046;-62
2022/09/13 03:29:35;;;;;;;;;;;16.90;99.90;;;;;;5034480;28;20042;-62
2022/09/13 03:32:45;;;;;;;9.35;5.93;;;16.90;99.90;;;;;;5032671;28;20016;-62
2022/09/13 03:35:35;;;;;;;14.27;7.65;;;16.90;99.90;;;;;;4934487;29;20040;-62
2022/09/13 03:38:12;;;;;;;11.32;6.97;;;17.00;99.90;;;;;;5033844;28;20045;-62
2022/09/13 03:40:50;;;;;;;10.25;6.65;;;16.90;99.90;;;;;;5034057;28;20523;-62
2022/09/13 03:43:34;;;;;;;14.05;6.85;;;17.00;99.90;;;;;;5033888;28;20401;-62
2022/09/13 03:46:08;;;;;;;10.00;6.93;;;16.90;99.90;;;;;;5033700;28;20052;-62
2022/09/13 03:48:36;;;;;;;14.57;6.95;;;17.00;99.90;;;;;;5033675;28;20060;-62
2022/09/13 03:51:07;;;;;;;10.88;6.45;;;17.00;99.90;;;;;;5028991;28;20053;-62
2022/09/13 03:53:36;;;;;;;12.50;7.07;;;17.00;99.90;;;;;;5033863;28;20396;-62
2022/09/13 03:56:14;;;;;;;9.38;6.55;;;17.00;99.90;;;;;;5033898;28;20041;-62
2022/09/13 03:58:41;;;;;;;9.70;6.68;;;17.00;99.90;;;;;;5033734;28;20045;-62
2022/09/13 04:01:09;;;;;;;8.68;6.20;;;17.00;99.90;;;;;;5015994;28;20120;-62
2022/09/13 04:03:38;;;;;;;11.43;6.40;;;17.00;99.90;;;;;;5033634;28;20041;-62
2022/09/13 04:06:04;;;;;;;10.38;5.45;;;17.10;99.90;;;;;;5015498;28;20133;-62
2022/09/13 04:08:30;;;;;;;12.52;6.55;;;17.10;99.90;;;;;;5033658;28;20493;-62
2022/09/13 04:10:57;;;;;;;12.10;6.30;;;17.10;99.90;;;;;;5033305;28;20084;-62
2022/09/13 04:13:22;;;;;;;9.48;5.63;;;17.10;99.90;;;;;;5033328;28;20129;-62
2022/09/13 04:15:49;;;;;;;9.98;5.70;;;17.10;99.90;;;;;;5033493;28;20183;-62
2022/09/13 04:18:15;;;;;;;9.88;5.85;;;17.30;99.90;;;;;;5033377;28;20061;-63
2022/09/13 04:20:40;;;;;;;14.57;6.63;;;17.20;99.90;;;;;;5033404;28;20512;-62
2022/09/13 04:23:06;;;;;;;10.60;6.40;;;17.40;99.90;;;;;;5033374;28;20037;-63
2022/09/13 04:25:32;;;;;;;8.15;5.70;;;17.30;99.90;;;;;;5033352;28;20500;-62
2022/09/13 04:28:01;;;;;;;12.85;6.57;;;17.30;99.90;;;;;;5033031;28;20432;-62
2022/09/13 04:30:27;;;;;;;9.93;5.25;;;17.10;99.90;;;;;;5033003;28;20084;-62
2022/09/13 04:32:55;;;;;;;8.93;5.53;;;17.10;99.90;;;;;;5033153;28;20370;-62
2022/09/13 04:35:21;;;;;;;10.07;5.38;;;17.40;99.90;;;;;;5033149;28;20504;-63
2022/09/13 04:37:46;;;;;;;10.55;5.75;;;17.50;99.90;;;;;;5033065;28;20033;-62
2022/09/13 04:40:13;;;;;;;10.13;6.10;;;;;;;;;;5015301;28;20044;-62
2022/09/13 04:42:39;;;;;;;11.57;5.97;;;17.20;99.90;;;;;;5033090;28;20042;-62
2022/09/13 04:45:05;;;;;;;9.90;5.25;;;17.20;99.90;;;;;;5015358;28;20043;-62
2022/09/13 04:47:31;;;;;;;9.15;5.10;;;17.20;99.90;;;;;;5033062;28;20060;-62
2022/09/13 04:49:57;;;;;;;9.18;5.13;;;17.20;99.90;;;;;;5015296;28;20042;-62
2022/09/13 04:52:23;;;;;;;7.38;4.78;;;17.20;99.90;;;;;;5032571;28;20052;-62
2022/09/13 04:54:49;;;;;;;7.28;4.68;;;17.20;99.90;;;;;;5015117;28;20041;-62
2022/09/13 04:57:18;;;;;;;8.68;4.97;;;17.20;99.90;;;;;;5032936;28;20041;-62
2022/09/13 04:59:43;;;;;;;6.00;4.03;;;17.20;99.90;;;;;;5033029;28;20477;-62
2022/09/13 05:02:09;;;;;;;7.88;4.32;;;17.20;99.90;;;;;;5032962;28;20050;-62
2022/09/13 05:04:35;;;;;;;6.55;4.60;;;17.20;99.90;;;;;;5015285;28;20067;-62
2022/09/13 05:07:02;;;;;;;9.05;4.07;;;17.10;99.90;;;;;;5032939;28;20410;-62
2022/09/13 05:09:27;;;;;;;6.80;3.83;;;17.20;99.90;;;;;;5014761;28;20053;-63
2022/09/13 05:11:53;;;;;;;6.00;3.50;;;17.20;99.90;;;;;;5032855;28;20092;-62
2022/09/13 05:14:19;;;;;;;5.47;3.38;;;17.20;99.90;;;;;;5032524;28;20034;-62
2022/09/13 05:16:44;;;;;;;6.28;3.95;;;17.10;99.90;;;;;;5032483;28;20055;-63
2022/09/13 05:19:11;;;;;;;10.02;4.00;;;17.10;99.90;;;;;;5014828;28;20052;-62
2022/09/13 05:21:37;;;;;;;6.50;4.00;;;17.20;99.90;;;;;;5032485;28;20045;-62
2022/09/13 05:24:03;;;;;;;6.72;3.50;;;17.10;99.90;;;;;;5032521;28;20045;-62
2022/09/13 05:26:32;;;;;;;7.95;4.63;;;17.10;99.90;;;;;;5032734;28;20041;-62
2022/09/13 05:28:59;;;;;;;8.98;3.65;;;17.10;99.90;;;;;;5032303;28;20515;-62
2022/09/13 05:31:28;;;;;;;6.30;3.90;;;17.20;99.90;;;;;;5017044;28;20042;-62
2022/09/13 05:33:57;;;;;;;7.13;4.03;;;17.20;99.90;;;;;;5036178;28;20103;-62
2022/09/13 05:36:25;;;;;;;5.22;3.45;;;17.20;99.90;;;;;;5036213;28;20041;-62
2022/09/13 05:38:54;;;;;;;6.38;3.40;;;17.20;99.90;;;;;;5018634;28;20053;-62
2022/09/13 05:41:20;;;;;;;5.00;3.35;;;17.20;99.90;;;;;;5018390;28;20143;-62
2022/09/13 05:43:47;;;;;;;5.95;3.50;;;17.20;99.90;;;;;;5036411;28;20566;-64
2022/09/13 05:46:15;;;;;;;4.25;2.70;;;17.20;99.90;;;;;;5018269;28;20049;-62
2022/09/13 05:48:41;;;;;;;4.72;2.92;;;17.20;99.90;;;;;;5036297;28;20067;-62
2022/09/13 05:51:15;;;;;;;4.07;2.70;;;17.20;99.90;;;;;;5036238;28;20473;-61
2022/09/13 05:53:43;;;;;;;4.40;2.72;;;17.20;99.90;;;;;;5035844;28;20037;-62
2022/09/13 05:56:11;;;;;;;4.07;2.65;;;17.20;99.90;;;;;;5035866;28;20043;-62
2022/09/13 05:58:42;;;;;;;5.75;3.05;;;17.20;99.90;;;;;;5035904;28;20076;-63
2022/09/13 06:01:08;;;;;;;;;;;17.20;99.90;;;;;;5018604;28;20045;-64
2022/09/13 06:03:35;;;;;;;2.72;1.60;;;17.20;99.90;;;;;;5036023;28;19943;-64
2022/09/13 06:06:01;;;;;;;3.17;1.65;;;17.20;99.90;;;;;;5035814;28;20116;-63
2022/09/13 06:08:29;;;;;;;2.65;1.80;;;17.20;99.90;;;;;;5035600;28;20042;-63
2022/09/13 06:11:10;;;;;;;3.58;1.48;;;17.20;99.90;;;;;;5035793;28;20080;-63
2022/09/13 06:13:36;;;;;;;1.65;1.23;;;17.20;99.90;;;;;;5018213;28;20394;-62
2022/09/13 06:16:04;;;;;;;1.90;1.40;;;17.20;99.90;;;;;;5035853;28;20034;-62
2022/09/13 06:18:30;;;;;;;2.53;1.40;;;17.10;99.90;;;;;;5018050;28;20111;-63
2022/09/13 06:21:07;;;;;;;4.28;1.23;;;17.10;99.90;;;;;;5035436;28;20035;-63
2022/09/13 06:23:33;;;;;;;3.10;1.20;;;17.10;99.90;;;;;;5035466;28;20041;-63
2022/09/13 06:26:04;;;;;;;2.15;1.13;;;17.00;99.90;;;;;;5035312;28;20045;-62
2022/09/13 06:28:30;;;;;;;1.50;0.93;;;17.00;99.90;;;;;;5035200;28;20064;-63
2022/09/13 06:31:05;;;;;;;2.85;1.17;;;17.00;99.90;;;;;;5035150;28;20041;-63
2022/09/13 06:33:32;;;;;;;2.47;1.20;;;17.00;99.90;;;;;;5017810;28;20485;-63
2022/09/13 06:36:07;;;;;;;1.65;0.98;;;17.10;99.90;;;;;;5017233;28;20065;-63
2022/09/13 06:38:33;;;;;;;1.33;0.85;;;17.00;99.90;;;;;;5035501;28;20049;-62
2022/09/13 06:41:05;;;;;;;1.35;0.82;;;17.00;99.90;;;;;;5035193;28;20045;-63
2022/09/13 06:43:56;;;;;;;1.35;0.85;;;17.00;99.90;;;;;;5033790;28;20508;-63
2022/09/13 06:46:31;;;;;;;1.02;0.73;;;16.90;99.90;;;;;;5035261;28;20481;-63
2022/09/13 06:49:02;;;;;;;1.88;0.73;;;17.00;99.90;;;;;;5034866;28;20485;-63
2022/09/13 06:51:29;;;;;;;3.83;1.17;;;17.00;99.90;;;;;;5035072;28;20052;-63
2022/09/13 06:53:57;;;;;;;1.55;0.90;;;17.00;99.90;;;;;;5017328;28;20045;-63
2022/09/13 06:56:26;;;;;;;1.88;0.90;;;17.00;99.90;;;;;;5035157;28;20049;-63
2022/09/13 06:58:58;;;;;;;1.42;0.90;;;17.00;99.90;;;;;;5034952;28;20041;-63
2022/09/13 07:01:28;;;;;;;2.42;0.88;;;17.10;99.90;;;;;;5034675;28;20052;-63
2022/09/13 07:03:58;;;;;;;1.70;1.10;;;17.10;99.90;;;;;;5034889;28;20038;-63
2022/09/13 07:06:27;;;;;;;2.20;0.70;;;17.10;99.90;;;;;;5034983;28;20488;-63
2022/09/13 07:08:53;;;;;;;2.30;1.00;;;17.20;99.90;;;;;;5017229;28;20465;-63
2022/09/13 07:11:22;;;;;;;3.33;1.00;;;17.20;99.90;;;;;;5034500;28;20059;-63
2022/09/13 07:13:53;;;;;;;4.88;0.95;;;17.30;99.90;;;;;;5016982;28;20481;-63
2022/09/13 07:16:20;;;;;;;1.13;0.70;;;17.30;99.90;;;;;;5034789;28;20469;-63
2022/09/13 07:18:51;;;;;;;1.40;0.82;;;17.40;99.90;;;;;;5016674;28;20038;-63
2022/09/13 07:21:17;;;;;;;0.90;0.75;;;17.40;99.90;;;;;;5017006;28;20073;-63
2022/09/13 07:23:43;;;;;;;1.33;0.82;;;17.50;99.90;;;;;;5034591;28;20080;-63
2022/09/13 07:26:09;;;;;;;2.15;0.75;;;17.50;99.90;;;;;;5034494;28;20050;-63
2022/09/13 07:28:40;;;;;;;1.77;1.05;;;17.50;99.90;;;;;;5034076;28;20473;-62
2022/09/13 07:31:12;;;;;;;0.93;0.68;;;17.60;99.90;;;;;;5034020;28;20099;-62
2022/09/13 07:33:47;;;;;;;1.60;0.70;;;17.60;99.90;;;;;;5016646;28;20374;-62
2022/09/13 07:36:17;;;;;;;1.35;0.80;;;17.70;99.90;;;;;;5033585;28;20500;-62
2022/09/13 07:38:47;;;;;;;1.17;0.77;;;17.90;99.90;;;;;;5016601;28;20124;-61
2022/09/13 07:41:16;;;;;;;1.60;0.70;;;18.00;99.90;;;;;;5033858;28;20053;-62
2022/09/13 07:43:42;;;;;;;4.07;0.70;;;18.20;99.90;;;;;;5016947;28;20043;-61
2022/09/13 07:46:13;;;;;;;2.17;0.88;;;;;;;;;;5033868;28;20156;-62
2022/09/13 07:48:40;;;;;;;0.82;0.50;;;;;;;;;;5033831;28;20041;-62
2022/09/13 07:51:08;;;;;;;1.30;0.68;;;;;;;;;;5033947;28;20507;-63
2022/09/13 07:53:35;;;;;;;1.85;0.68;;;;;;;;;;5033301;28;20037;-62
2022/09/13 07:56:02;;;;;;;3.22;0.75;;;;;;;;;;5016027;28;20045;-62
2022/09/13 07:58:28;;;;;;;1.00;0.70;;;;;;;;;;5033621;28;20041;-62
2022/09/13 08:00:55;;;;;;;2.53;0.70;;;;;;;;;;5033517;28;20072;-62
2022/09/13 08:03:21;;;;;;;0.57;0.40;;;;;;;;;;5033479;28;20128;-62
2022/09/13 08:05:47;;;;;;;0.60;0.30;;;;;;;;;;5047721;28;20098;-64
2022/09/13 08:08:13;;;;;;;2.72;0.40;;;;;;;;;;5053443;28;20037;-62
2022/09/13 08:10:39;;;;;;;0.95;0.47;;;;;;;;;;5052012;28;20041;-63
2022/09/13 08:13:06;;;;;;;1.52;0.40;;;18.80;99.90;;;;;;5053227;28;20048;-64
2022/09/13 08:15:33;;;;;;;1.55;0.40;;;18.70;99.90;;;;;;5053286;28;20048;-63
2022/09/13 08:18:05;;;;;;;0.68;0.30;;;18.90;99.90;;;;;;5051842;28;20369;-64
2022/09/13 08:20:39;;;;;;;1.30;0.50;;;19.10;99.90;;;;;;5052569;28;20087;-62
2022/09/13 08:23:06;;;;;;;1.65;0.40;;;19.10;99.90;;;;;;5053370;28;20404;-66
2022/09/13 08:25:33;;;;;;;0.30;0.30;;;;;;;;;;5052789;28;20036;-63
2022/09/13 08:28:00;;;;;;;0.40;0.22;;;;;;;;;;5052611;28;20061;-63
2022/09/13 08:30:32;;;;;;;0.73;0.32;;;;;;;;;;5051760;28;20040;-63
2022/09/13 08:33:00;;;;;;;0.60;0.40;;;;;;;;;;5052785;28;20056;-63
2022/09/13 08:35:26;;;;;;;0.47;0.20;;;;;;;;;;5036552;28;20069;-63
2022/09/13 08:37:51;;;;;;;3.95;0.50;;;18.80;99.90;;;;;;5032911;28;20503;-63
2022/09/13 08:40:17;;;;;;;0.43;0.20;;;18.80;99.90;;;;;;5033274;28;20037;-63
2022/09/13 08:43:21;;;;;;;0.82;0.20;;;18.80;99.90;;;;;;5033228;28;20496;-63
2022/09/13 08:46:00;;;;;;;3.30;0.40;;;18.80;99.90;;;;;;5031485;28;20128;-63
2022/09/13 08:48:33;;;;;;;1.88;0.57;;;18.80;99.90;;;;;;5032781;28;20049;-63
2022/09/13 08:51:04;;;;;;;0.57;0.20;;;18.90;97.80;;;;;;5033111;28;20481;-63
2022/09/13 08:53:34;;;;;;;3.40;0.28;;;18.80;96.70;;;;;;5032666;28;20045;-63
2022/09/13 08:56:06;;;;;;;0.52;0.30;;;18.90;98.00;;;;;;5032970;28;20044;-63
2022/09/13 08:58:38;;;;;;;1.00;0.47;;;18.80;98.00;;;;;;5015147;28;20128;-63
2022/09/13 09:05:18;;;;;;;0.30;0.30;;;18.80;98.00;;;;;;5117482;22;20080;-62
2022/09/13 09:07:50;;;;;;;0.77;0.30;;;19.00;92.80;;;;;;5027376;28;20106;-62
2022/09/13 09:20:48;;;;;;;1.08;0.45;;;19.10;94.80;;;;;;5416042;22;20049;-76
2022/09/13 09:23:17;;;;;;;1.30;0.40;;;18.90;93.40;;;;;;5022122;28;20112;-77
2022/09/13 09:25:52;;;;;;;1.52;0.32;;;18.90;93.30;;;;;;5022397;28;20069;-77
2022/09/13 09:28:19;;;;;;;0.47;0.30;;;19.00;93.00;;;;;;5022631;28;20090;-76
2022/09/13 09:31:06;;;;;;;0.55;0.28;;;19.10;94.00;;;;;;5005548;28;20487;-78
2022/09/13 09:33:50;;;;;;;1.42;0.40;;;19.30;91.30;;;;;;5021837;28;20061;-78
2022/09/13 09:39:10;;;;;;;1.05;0.38;;;19.60;92.70;;;;;;5053145;28;20052;-60
2022/09/13 09:41:45;;;;;;;0.98;0.45;;;19.40;91.50;;;;;;5014330;28;20551;-67
2022/09/13 09:44:33;;;;;;;0.88;0.30;;;19.30;92.80;;;;;;5016366;28;20042;-67
2022/09/13 09:47:17;;;;;;;0.85;0.38;;;19.40;92.70;;;;;;5016368;28;20045;-67
2022/09/13 09:50:24;;;;;;;1.48;0.30;;;19.40;92.50;;;;;;5013269;28;20041;-67
2022/09/13 09:53:23;;;;;;;0.43;0.20;;;19.40;86.10;;;;;;4940092;28;20063;-66
2022/09/13 09:56:02;;;;;;;1.70;0.40;;;19.40;79.40;;;;;;5016444;28;20392;-66
2022/09/13 09:58:43;;;;;;;0.68;0.28;;;19.60;82.00;;;;;;5016339;28;20514;-66
2022/09/13 10:01:18;;;;;;;5.47;0.40;;;19.80;67.20;;;;;;5016307;28;20041;-65
2022/09/13 10:03:57;;;;;;;1.38;0.40;;;20.10;81.20;;;;;;4998653;28;20054;-66
2022/09/13 10:06:27;;;;;;;1.58;0.30;;;20.30;80.50;;;;;;5016291;28;20125;-66
2022/09/13 10:09:12;;;;;;;0.28;0.28;;;20.60;83.50;;;;;;4998413;28;20056;-66
2022/09/13 10:11:55;;;;;;;0.88;0.38;;;20.50;74.20;;;;;;5015813;28;20389;-65
2022/09/13 10:14:41;;;;;;;0.80;0.32;;;20.50;78.20;;;;;;5016052;28;20045;-66
2022/09/13 10:17:20;;;;;;;0.20;0.20;;;20.30;70.20;;;;;;5015755;28;20045;-66
2022/09/13 10:20:00;;;;;;;3.30;0.55;;;20.10;75.30;;;;;;5015972;28;20037;-66
2022/09/13 10:22:27;;;;;;;0.55;0.13;;;20.20;77.40;;;;;;5015546;28;20042;-67
2022/09/13 10:24:53;;;;;;;0.10;0.10;;;20.10;80.10;;;;;;4997939;28;20057;-66
2022/09/13 10:27:31;;;;;;;0.80;0.20;;;19.90;72.90;;;;;;5015529;28;20045;-67
2022/09/13 10:30:01;;;;;;;0.95;0.35;;;19.90;69.80;;;;;;4997783;28;20057;-66
2022/09/13 10:32:27;;;;;;;1.15;0.25;;;19.90;79.00;;;;;;5015550;28;20397;-66
2022/09/13 10:34:56;;;;;;;0.47;0.40;;;19.90;70.10;;;;;;4998183;28;20042;-67
2022/09/13 10:37:30;;;;;;;0.75;0.22;;;20.00;73.10;;;;;;5015613;28;20115;-67
2022/09/13 10:40:16;;;;;;;1.30;0.28;;;20.20;69.80;;;;;;5013718;28;20046;-68
2022/09/13 10:42:51;;;;;;;1.52;0.57;;;20.30;70.70;;;;;;5008303;28;20046;-68
2022/09/13 10:45:26;;;;;;;0.28;0.20;;;20.30;63.20;;;;;;5015601;28;20038;-68
2022/09/13 10:47:57;;;;;;;0.45;0.20;;;20.60;63.70;;;;;;5015496;28;20401;-67
2022/09/13 10:50:25;;;;;;;0.98;0.40;;;20.70;67.30;;;;;;5015378;28;20046;-67
2022/09/13 10:52:52;;;;;;;1.65;0.43;;;20.80;54.30;;;;;;5015177;28;20034;-65
2022/09/13 10:55:18;;;;;;;1.23;0.25;;;20.80;57.70;;;;;;5015375;28;20042;-66
2022/09/13 10:57:44;;;;;;;2.53;0.98;;;20.60;54.40;;;;;;5014850;28;20037;-65
2022/09/13 11:00:12;;;;;;;0.43;0.30;;;20.30;43.80;;;;;;5015141;28;20049;-65
2022/09/13 11:02:56;;;;;;;1.65;0.40;;;20.10;51.20;;;;;;4990631;28;20041;-66
2022/09/13 11:05:36;;;;;;;0.38;0.17;;;20.10;48.70;;;;;;5014859;28;20129;-66
2022/09/13 11:08:28;;;;;;;1.13;0.32;;;20.10;49.50;;;;;;5015057;28;20095;-65
2022/09/13 11:11:22;;;;;;;0.57;0.25;;;20.30;38.30;;;;;;5014951;28;20069;-66
2022/09/13 11:13:58;;;;;;;0.35;0.20;;;20.50;54.40;;;;;;5008471;28;20389;-65
2022/09/13 11:16:34;;;;;;;0.30;0.20;;;20.70;27.90;;;;;;5030190;28;20077;-70
2022/09/13 11:19:37;;;;;;;1.02;0.30;;;20.70;28.00;;;;;;5014637;28;20393;-69
2022/09/13 11:22:03;;;;;;;0.35;0.20;;;20.70;45.60;;;;;;5014833;28;20057;-65
2022/09/13 11:24:41;;;;;;;0.45;0.20;;;20.80;50.00;;;;;;5014761;28;20042;-67
2022/09/13 11:27:52;;;;;;;0.85;0.30;;;20.80;52.70;;;;;;5014692;28;20050;-70
2022/09/13 11:30:23;;;;;;;3.40;0.35;;;20.70;43.90;;;;;;4978461;28;20112;-69
2022/09/13 11:33:28;;;;;;;1.85;0.40;;;20.60;51.90;;;;;;5014606;28;20044;-68
2022/09/13 11:36:14;;;;;;;0.57;0.25;;;20.90;48.40;;;;;;5002225;28;20132;-69
2022/09/13 11:39:01;;;;;;;1.10;0.30;;;21.20;45.60;;;;;;5014229;28;20049;-68
2022/09/13 11:41:30;;;;;;;2.38;0.30;;;21.20;42.20;;;;;;5014023;28;20436;-68
2022/09/13 11:44:32;;;;;;;0.52;0.30;;;21.00;48.00;;;;;;5008461;28;20049;-67
2022/09/13 11:47:21;;;;;;;0.47;0.22;;;20.90;51.70;;;;;;5010420;28;20453;-67
2022/09/13 11:50:05;;;;;;;1.30;0.30;;;20.90;54.70;;;;;;5013750;28;20041;-67
2022/09/13 11:52:39;;;;;;;0.73;0.47;;;21.00;55.30;;;;;;5014184;28;20038;-67
2022/09/13 11:55:30;;;;;;;1.65;0.47;;;21.00;35.10;;;;;;5014071;28;20034;-66
2022/09/13 11:58:00;;;;;;;2.88;0.38;;;20.80;30.50;;;;;;5013818;28;20049;-67
2022/09/13 12:00:43;;;;;;;0.77;0.22;;;20.80;36.10;;;;;;5012836;28;20038;-66
2022/09/13 12:03:09;;;;;;;0.45;0.25;;;20.80;25.60;;;;;;5014068;28;20400;-67
2022/09/13 12:05:44;;;;;;;1.25;0.22;;;20.80;21.20;;;;;;5014076;28;20041;-67
2022/09/13 12:08:35;;;;;;;0.88;0.20;;;20.90;35.50;;;;;;5013729;28;20092;-67
2022/09/13 12:11:02;;;;;;;;;;;20.90;23.60;;;;;;5014298;28;20038;-65
2022/09/13 12:13:38;;;;;;;3.22;0.55;;;20.80;17.00;;;;;;5012405;28;19922;-66
2022/09/13 12:16:07;;;;;;;0.60;0.20;;;20.70;12.20;;;;;;5013887;28;20025;-66
2022/09/13 12:18:47;;;;;;;3.58;0.40;;;20.50;27.20;;;;;;5013716;28;20042;-67
2022/09/13 12:21:22;;;;;;;0.85;0.20;;;20.40;22.90;;;;;;5012343;28;20485;-67
2022/09/13 12:24:13;;;;;;;0.57;0.15;;;20.50;29.30;;;;;;5013510;28;20037;-66
2022/09/13 12:26:55;;;;;;;1.10;0.20;;;20.50;10.60;;;;;;5013465;28;20487;-67
2022/09/13 12:29:36;;;;;;;0.75;0.17;;;20.60;13.50;;;;;;5013686;28;20481;-67
2022/09/13 12:32:04;;;;;;;0.85;0.30;;;20.60;5.30;;;;;;5013501;28;20100;-66
2022/09/13 12:34:56;;;;;;;0.15;0.10;;;20.70;22.00;;;;;;5011915;28;20046;-67
2022/09/13 12:37:37;;;;;;;0.88;0.40;;;20.90;26.70;;;;;;5013407;28;20061;-67
2022/09/13 12:40:28;;;;;;;1.40;0.25;;;20.90;28.20;;;;;;5012943;28;20077;-66
2022/09/13 12:43:10;;;;;;;0.75;0.30;;;20.90;9.50;;;;;;4989544;28;20053;-66
2022/09/13 12:45:47;;;;;;;1.10;0.50;;;21.00;13.10;;;;;;5012396;28;20400;-68
2022/09/13 12:48:40;;;;;;;3.92;0.30;;;20.90;8.70;;;;;;5012273;28;20042;-67
2022/09/13 12:51:19;;;;;;;0.80;0.30;;;20.90;7.20;;;;;;5010788;28;20046;-66
2022/09/13 12:54:19;;;;;;;1.73;0.43;;;20.80;9.20;;;;;;5010844;28;20046;-66
2022/09/13 12:57:02;;;;;;;0.55;0.30;;;20.90;21.50;;;;;;5012189;28;20050;-66
2022/09/13 13:00:13;;;;;;;0.43;0.20;;;21.00;20.00;;;;;;5012454;28;20048;-67
2022/09/13 13:02:59;;;;;;;0.85;0.10;;;21.10;26.60;;;;;;4951610;29;20049;-66
2022/09/13 13:05:33;;;;;;;1.80;0.20;;;21.20;15.00;;;;;;4951647;29;20055;-66
2022/09/13 13:08:05;;;;;;;1.35;0.20;;;21.10;13.50;;;;;;4991668;28;20054;-66
2022/09/13 13:10:37;;;;;;;0.45;0.20;;;21.20;7.00;;;;;;5011967;28;20046;-66
2022/09/13 13:13:12;;;;;;;0.10;0.10;;;21.30;21.10;;;;;;5011888;28;20504;-67
2022/09/13 13:15:42;;;;;;;0.45;0.20;;;21.50;17.60;;;;;;5010460;28;20042;-67
2022/09/13 13:18:29;;;;;;;2.25;0.40;;;21.70;24.10;;;;;;5010594;28;20089;-67
2022/09/13 13:20:55;;;;;;;0.63;0.55;;;;;;;;;;5012043;28;20097;-66
2022/09/13 13:23:22;;;;;;;0.93;0.30;;;21.90;14.10;;;;;;5012087;28;20062;-67
2022/09/13 13:26:09;;;;;;;5.57;0.40;;;21.50;16.00;;;;;;5012127;28;20054;-67
2022/09/13 13:28:46;;;;;;;0.10;0.10;;;21.60;13.50;;;;;;5011916;28;20101;-68
2022/09/13 13:31:28;;;;;;;2.63;0.22;;;21.30;14.00;;;;;;5011885;28;20116;-65
2022/09/13 13:34:09;;;;;;;0.90;0.32;;;21.20;22.80;;;;;;5011663;28;20082;-67
2022/09/13 13:36:40;;;;;;;;;;;21.20;25.60;;;;;;5011928;28;20086;-66
2022/09/13 13:42:25;;;;;;;0.90;0.20;;;21.30;16.40;;;;;;5131035;27;20387;-66
2022/09/13 13:44:53;;;;;;;0.60;0.10;;;21.40;2.40;;;;;;5131083;28;20046;-66
2022/09/13 13:47:19;;;;;;;0.20;0.10;;;21.30;10.70;;;;;;5130977;28;20126;-68
2022/09/13 13:50:08;;;;;;;0.60;0.30;;;21.40;17.10;;;;;;5112537;28;20044;-67